Hauptseite
METAR-TAF:

METAR-TAF

Flughäfen :

Yap, Mikronesien

Breite: 09-29N, Länge: 138-05E, Höhe: 28 m

Beobachtung

Neuester Wetterbericht von vor 52 Minuten, um 06:50 UTC
Wind 8 kt aus Südwest
Temperatur 28°C
Luftfeuchtigkeit 84%
Luftdruck 1004 hPa
Sichtweite: 19.3 km
Aufgelockert bewölkt in der Höhe von 1600 ft, Towering cumulus.
Durchbrochene Bewölkung in der Höhe von 30000 ft
Schauer in der Nähe

METAR: PTYA 170650Z 23008KT 12SM VCSH SCT016TCU BKN300 28/25 A2964 RMK SHRAB27E37 VCSH NE TCU NE SLP039 T02820247

Zeit: 17:42 (07:42 UTC)

Prognose

Neuester Wetterbericht von vor 2 Stunden und 19 Minuten, um 05:23 UTC
Gültige Prognose vom 17 um 06 UTC bis 18 um 06 UTC
Wind 10 kt aus Südwest
Sichtweite: 10 km
Aufgelockert bewölkt in der Höhe von 1600 ft
Aufgelockert bewölkt in der Höhe von 3000 ft
Schauer in der Nähe

TAF: PTYA 170523Z 1706/1806 23010KT P6SM VCSH SCT016 SCT030

Wetterbeobachtungen und Prognosen von mehr als 4000 Flughäfen (METAR und TAF Bericht).

Die verfügbaren Stationen werden durch gelbe und rote Markierungen auf der Karte dargestellt.

Führen Sie die Maus auf sie, um den Namen der Station zu sehen.

Darauf klicken, um die Beobachtung von Wetterbeobachtungen und Prognosen zu sehen.

Um die Karte zu ändern : klicken Sie auf den grünen Tasten mit einem schwarzen Kreuz Zum Vergrößern, auf den grünen Button mit einem Gedankenstrich zu verkleinern, oder auf die grünen Pfeile für benachbarte Karten.


METAR-TAF: